createdAt,value
2022-12-04T00:00:45.381Z,86.93
2022-12-04T00:03:22.500Z,112.65
2022-12-04T00:05:53.113Z,22.05
2022-12-04T00:08:21.628Z,59.85
2022-12-04T00:10:50.086Z,17.75
2022-12-04T00:13:19.728Z,326.85
2022-12-04T00:15:49.290Z,49.35
2022-12-04T00:18:21.474Z,38.05
2022-12-04T00:20:51.935Z,40.33
2022-12-04T00:23:20.984Z,67.10
2022-12-04T00:25:50.495Z,100.93
2022-12-04T00:28:20.953Z,130.88
2022-12-04T00:30:49.852Z,208.85
2022-12-04T00:33:21.127Z,38.95
2022-12-04T00:35:50.599Z,428.90
2022-12-04T00:38:19.806Z,89.80
2022-12-04T00:40:52.382Z,384.88
2022-12-04T00:43:21.562Z,351.13
2022-12-04T00:45:50.108Z,285.23
2022-12-04T00:48:20.981Z,438.27
2022-12-04T00:50:51.141Z,260.50
2022-12-04T00:53:21.054Z,469.65
2022-12-04T00:55:49.740Z,247.48
2022-12-04T00:58:19.881Z,49.35
2022-12-04T01:00:48.995Z,89.03
2022-12-04T01:03:23.855Z,125.20
2022-12-04T01:05:56.413Z,86.03
2022-12-04T01:08:26.171Z,89.25
2022-12-04T01:10:56.232Z,79.20
2022-12-04T01:13:26.554Z,121.68
2022-12-04T01:15:57.004Z,96.22
2022-12-04T01:18:26.638Z,330.08
2022-12-04T01:20:57.833Z,303.42
2022-12-04T01:23:27.595Z,256.17
2022-12-04T01:25:59.703Z,52.85
2022-12-04T01:28:28.892Z,122.07
2022-12-04T01:31:02.859Z,52.88
2022-12-04T01:36:04.083Z,169.25
2022-12-04T01:38:36.555Z,271.88
2022-12-04T01:41:06.100Z,154.68
2022-12-04T01:43:44.189Z,175.57
2022-12-04T01:46:14.016Z,24.15
2022-12-04T01:48:48.824Z,293.85
2022-12-04T01:51:22.628Z,1030.13
2022-12-04T01:53:54.919Z,109.95
2022-12-04T01:56:30.959Z,62.50
2022-12-04T01:59:02.522Z,82.97
2022-12-04T02:01:38.740Z,17.33
2022-12-04T02:04:09.258Z,156.68
2022-12-04T02:06:41.533Z,120.57
2022-12-04T02:09:12.489Z,33.80
2022-12-04T02:11:50.261Z,68.57
2022-12-04T02:14:28.754Z,343.00
2022-12-04T02:17:07.127Z,65.03
2022-12-04T02:19:54.455Z,105.70
2022-12-04T02:22:39.127Z,367.98
2022-12-04T02:25:21.041Z,140.20
2022-12-04T02:28:10.693Z,31.08
2022-12-04T02:30:43.317Z,18.98
2022-12-04T02:33:20.972Z,125.72
2022-12-04T02:35:54.171Z,305.17
2022-12-04T02:38:29.701Z,220.75
2022-12-04T02:41:05.589Z,152.52
2022-12-04T02:43:42.224Z,226.68
2022-12-04T02:46:17.360Z,122.75
2022-12-04T02:48:49.238Z,81.63
2022-12-04T02:51:22.739Z,105.60
2022-12-04T02:53:56.750Z,281.55
2022-12-04T02:59:01.697Z,573.38
2022-12-04T03:01:35.819Z,542.40
2022-12-04T03:04:12.066Z,929.95
2022-12-04T03:06:45.479Z,913.47
2022-12-04T03:09:20.028Z,471.30
2022-12-04T03:11:54.269Z,500.25
2022-12-04T03:14:29.868Z,334.23
2022-12-04T03:17:04.625Z,437.40
2022-12-04T03:19:39.829Z,465.45
2022-12-04T03:22:15.635Z,259.42
2022-12-04T03:24:51.536Z,960.72
2022-12-04T03:27:28.829Z,723.10
2022-12-04T03:30:04.478Z,388.27
2022-12-04T03:32:38.003Z,488.77
2022-12-04T03:35:14.566Z,319.92
2022-12-04T03:37:51.307Z,569.22
2022-12-04T03:40:25.752Z,490.30
2022-12-04T03:43:03.119Z,403.25
2022-12-04T03:45:42.755Z,208.45
2022-12-04T03:48:23.142Z,28.92
2022-12-04T03:50:58.987Z,102.40
2022-12-04T03:53:33.270Z,74.72
2022-12-04T03:56:08.110Z,117.32
2022-12-04T03:58:40.477Z,87.97
2022-12-04T04:01:13.902Z,46.03
2022-12-04T04:03:47.611Z,30.40
2022-12-04T04:06:20.468Z,12.30
2022-12-04T04:08:54.611Z,10.15
2022-12-04T04:11:34.017Z,11.23
2022-12-04T04:14:24.326Z,10.85
2022-12-04T04:17:18.706Z,7.00
2022-12-04T04:20:08.903Z,8.30
2022-12-04T04:22:56.330Z,11.32
2022-12-04T04:25:28.133Z,13.88
2022-12-04T04:27:59.958Z,11.88
2022-12-04T04:30:32.102Z,10.30
2022-12-04T04:33:13.104Z,11.80
2022-12-04T04:35:52.282Z,12.45
2022-12-04T04:38:29.580Z,13.77
2022-12-04T04:41:05.559Z,8.55
2022-12-04T04:43:38.694Z,11.15
2022-12-04T04:46:13.340Z,15.60
2022-12-04T04:48:49.196Z,20.13
2022-12-04T04:51:19.037Z,12.30
2022-12-04T04:53:51.590Z,8.25
2022-12-04T04:56:22.045Z,10.27
2022-12-04T04:58:50.828Z,11.10
2022-12-04T05:01:22.489Z,8.32
2022-12-04T05:03:52.697Z,14.60
2022-12-04T05:06:21.896Z,13.60
2022-12-04T05:08:50.411Z,13.85
2022-12-04T05:11:19.093Z,10.00
2022-12-04T05:13:47.973Z,9.00
2022-12-04T05:16:17.270Z,10.90
2022-12-04T05:19:06.868Z,12.90
2022-12-04T05:21:35.886Z,6.55
2022-12-04T05:24:04.656Z,13.38
2022-12-04T05:26:33.969Z,8.55
2022-12-04T05:29:02.674Z,9.07
2022-12-04T05:31:31.932Z,7.60
2022-12-04T05:34:00.341Z,5.63
2022-12-04T05:36:28.792Z,6.25
2022-12-04T05:38:59.056Z,6.30
2022-12-04T05:41:27.719Z,8.32
2022-12-04T05:43:57.219Z,8.68
2022-12-04T05:46:25.718Z,7.57
2022-12-04T05:48:55.158Z,9.77
2022-12-04T05:51:23.965Z,7.10
2022-12-04T05:53:54.129Z,7.43
2022-12-04T05:56:24.455Z,7.00
2022-12-04T05:58:53.093Z,5.78
2022-12-04T06:01:23.826Z,5.65
2022-12-04T06:03:53.308Z,7.65
2022-12-04T06:06:24.137Z,6.38
2022-12-04T06:08:54.095Z,7.50
2022-12-04T06:11:26.374Z,6.95
2022-12-04T06:13:55.261Z,6.32
2022-12-04T06:16:25.931Z,7.07
2022-12-04T06:18:55.775Z,7.03
2022-12-04T06:21:26.534Z,9.32
2022-12-04T06:23:56.276Z,8.55
2022-12-04T06:26:26.914Z,8.50
2022-12-04T06:28:57.323Z,7.10
2022-12-04T06:31:28.196Z,7.97
2022-12-04T06:33:58.506Z,8.20
2022-12-04T06:36:27.351Z,9.68
2022-12-04T06:38:59.040Z,9.77
2022-12-04T06:41:30.998Z,8.75
2022-12-04T06:44:00.235Z,6.88
2022-12-04T06:46:32.762Z,7.57
2022-12-04T06:49:03.293Z,8.27
2022-12-04T06:51:34.654Z,7.70
2022-12-04T06:54:04.463Z,8.27
2022-12-04T06:56:37.134Z,7.75
2022-12-04T06:59:07.277Z,8.32
2022-12-04T07:01:36.545Z,8.43
2022-12-04T07:04:05.564Z,10.82
2022-12-04T07:06:36.653Z,7.18
2022-12-04T07:09:07.966Z,9.55
2022-12-04T07:11:39.229Z,7.97
2022-12-04T07:14:08.319Z,8.07
2022-12-04T07:16:41.127Z,7.60
2022-12-04T07:19:11.633Z,12.23
2022-12-04T07:21:40.923Z,8.40
2022-12-04T07:24:09.967Z,11.13
2022-12-04T07:26:40.573Z,8.23
2022-12-04T07:29:11.044Z,9.70
2022-12-04T07:31:40.971Z,9.07
2022-12-04T07:34:10.062Z,6.45
2022-12-04T07:36:42.001Z,8.23
2022-12-04T07:39:10.849Z,8.85
2022-12-04T07:41:41.240Z,8.90
2022-12-04T07:44:10.035Z,8.32
2022-12-04T07:46:38.597Z,10.05
2022-12-04T07:49:07.062Z,8.93
2022-12-04T07:51:36.889Z,7.40
2022-12-04T07:54:05.880Z,12.02
2022-12-04T07:56:35.282Z,8.90
2022-12-04T07:59:06.105Z,9.65
2022-12-04T08:01:35.945Z,8.82
2022-12-04T08:04:04.986Z,7.95
2022-12-04T08:06:36.575Z,10.40
2022-12-04T08:09:09.711Z,9.75
2022-12-04T08:11:39.205Z,9.90
2022-12-04T08:14:10.189Z,6.10
2022-12-04T08:16:39.476Z,9.57
2022-12-04T08:19:08.738Z,8.02
2022-12-04T08:21:38.878Z,9.73
2022-12-04T08:24:07.950Z,8.65
2022-12-04T08:26:36.992Z,7.53
2022-12-04T08:29:10.070Z,7.88
2022-12-04T08:31:40.475Z,10.17
2022-12-04T08:34:10.515Z,5.50
2022-12-04T08:36:39.280Z,5.90
2022-12-04T08:39:08.794Z,8.70
2022-12-04T08:41:39.018Z,7.85
2022-12-04T08:44:12.004Z,6.72
2022-12-04T08:46:41.657Z,8.18
2022-12-04T08:49:10.828Z,6.90
2022-12-04T08:51:40.251Z,6.85
2022-12-04T08:54:14.555Z,7.95
2022-12-04T08:56:45.845Z,9.20
2022-12-04T08:59:16.030Z,5.70
2022-12-04T09:01:44.922Z,8.80
2022-12-04T09:04:13.888Z,7.53
2022-12-04T09:06:42.812Z,6.70
2022-12-04T09:09:11.191Z,6.20
2022-12-04T09:11:39.707Z,12.82
2022-12-04T09:14:09.229Z,7.50
2022-12-04T09:16:40.385Z,7.28
2022-12-04T09:19:09.711Z,6.53
2022-12-04T09:21:40.740Z,5.93
2022-12-04T09:24:10.447Z,6.70
2022-12-04T09:26:39.707Z,6.30
2022-12-04T09:29:08.834Z,7.00
2022-12-04T09:31:39.941Z,6.22
2022-12-04T09:34:08.980Z,8.43
2022-12-04T09:36:40.602Z,7.28
2022-12-04T09:39:10.044Z,9.70
2022-12-04T09:42:05.959Z,6.07
2022-12-04T09:44:38.096Z,6.72
2022-12-04T09:47:16.360Z,7.13
2022-12-04T09:49:51.882Z,9.07
2022-12-04T09:52:32.971Z,4.85
2022-12-04T09:55:05.710Z,6.57
2022-12-04T09:57:40.694Z,5.00
2022-12-04T10:00:16.734Z,4.68
2022-12-04T10:02:53.142Z,5.78
2022-12-04T10:05:29.438Z,8.43
2022-12-04T10:08:10.116Z,9.27
2022-12-04T10:10:42.786Z,7.07
2022-12-04T10:13:28.960Z,5.97
2022-12-04T10:16:06.743Z,6.00
2022-12-04T10:18:48.242Z,5.55
2022-12-04T10:21:35.157Z,6.97
2022-12-04T10:24:19.191Z,6.50
2022-12-04T10:26:50.022Z,7.88
2022-12-04T10:29:23.311Z,7.28
2022-12-04T10:31:55.890Z,6.60
2022-12-04T10:34:30.532Z,7.97
2022-12-04T10:37:08.223Z,5.32
2022-12-04T10:39:44.380Z,7.10
2022-12-04T10:42:25.577Z,7.90
2022-12-04T10:44:54.761Z,7.60
2022-12-04T10:47:26.343Z,6.28
2022-12-04T10:50:01.872Z,6.55
2022-12-04T10:52:32.612Z,4.78
2022-12-04T10:55:03.402Z,5.88
2022-12-04T10:57:40.015Z,5.97
2022-12-04T11:00:28.567Z,7.38
2022-12-04T11:03:01.932Z,7.18
2022-12-04T11:05:37.901Z,7.72
2022-12-04T11:08:08.922Z,10.80
2022-12-04T11:10:40.818Z,8.25
2022-12-04T11:13:18.203Z,7.25
2022-12-04T11:15:51.703Z,8.00
2022-12-04T11:18:24.020Z,5.40
2022-12-04T11:20:58.406Z,8.00
2022-12-04T11:23:27.603Z,7.68
2022-12-04T11:26:06.177Z,8.73
2022-12-04T11:28:44.039Z,7.40
2022-12-04T11:31:19.762Z,10.60
2022-12-04T11:33:54.335Z,9.88
2022-12-04T11:38:57.735Z,7.43
2022-12-04T11:41:30.843Z,7.45
2022-12-04T11:44:01.109Z,7.32
2022-12-04T11:46:34.896Z,11.48
2022-12-04T11:49:04.657Z,14.95
2022-12-04T11:51:50.638Z,8.70
2022-12-04T11:54:31.318Z,7.88
2022-12-04T11:57:12.577Z,7.25
2022-12-04T11:59:55.917Z,9.38
2022-12-04T12:02:42.861Z,9.48
2022-12-04T12:05:40.013Z,6.63
2022-12-04T12:08:21.338Z,7.65
2022-12-04T12:10:58.706Z,10.27
2022-12-04T12:13:36.909Z,5.82
2022-12-04T12:16:14.999Z,8.73
2022-12-04T12:19:00.250Z,7.20
2022-12-04T12:21:33.508Z,5.75
2022-12-04T12:24:17.965Z,9.90
2022-12-04T12:26:55.255Z,7.43
2022-12-04T12:29:36.931Z,5.28
2022-12-04T12:32:28.731Z,6.93
2022-12-04T12:34:57.692Z,6.22
2022-12-04T12:37:33.189Z,5.22
2022-12-04T12:40:11.813Z,8.43
2022-12-04T12:42:47.368Z,7.28
2022-12-04T12:45:39.526Z,6.43
2022-12-04T12:48:14.084Z,5.63
2022-12-04T12:50:58.271Z,9.40
2022-12-04T12:53:43.514Z,7.50
2022-12-04T12:56:14.955Z,7.00
2022-12-04T12:58:49.084Z,7.05
2022-12-04T13:01:21.520Z,8.32
2022-12-04T13:03:58.924Z,6.38
2022-12-04T13:06:34.737Z,7.40
2022-12-04T13:09:09.830Z,6.32
2022-12-04T13:11:42.188Z,9.20
2022-12-04T13:14:16.102Z,7.97
2022-12-04T13:16:50.469Z,7.80
2022-12-04T13:19:24.383Z,10.55
2022-12-04T13:22:02.006Z,6.80
2022-12-04T13:24:49.980Z,8.23
2022-12-04T13:27:37.089Z,6.35
2022-12-04T13:30:16.114Z,9.07
2022-12-04T13:33:17.234Z,8.23
2022-12-04T13:36:04.758Z,7.90
2022-12-04T13:38:44.075Z,7.20
2022-12-04T13:41:18.717Z,9.07
2022-12-04T13:43:55.836Z,9.52
2022-12-04T13:46:37.793Z,7.60
2022-12-04T13:49:14.460Z,7.50
2022-12-04T13:51:44.600Z,8.32
2022-12-04T13:54:26.169Z,9.20
2022-12-04T13:56:57.520Z,7.50
2022-12-04T13:59:38.782Z,8.70
2022-12-04T14:02:29.531Z,10.07
2022-12-04T14:05:02.486Z,10.30
2022-12-04T14:07:35.203Z,8.05
2022-12-04T14:10:07.693Z,10.80
2022-12-04T14:12:41.145Z,8.82
2022-12-04T14:15:24.675Z,10.50
2022-12-04T14:18:01.728Z,10.35
2022-12-04T14:20:33.007Z,13.90
2022-12-04T14:23:27.188Z,7.85
2022-12-04T14:25:58.208Z,7.38
2022-12-04T14:28:30.098Z,9.82
2022-12-04T14:31:20.450Z,7.60
2022-12-04T14:33:53.263Z,8.00
2022-12-04T14:36:26.321Z,7.10
2022-12-04T14:39:05.584Z,9.25
2022-12-04T14:41:36.321Z,9.77
2022-12-04T14:44:05.449Z,8.85
2022-12-04T14:46:42.285Z,10.07
2022-12-04T14:49:28.197Z,8.55
2022-12-04T14:52:05.147Z,8.80
2022-12-04T14:54:43.891Z,7.65
2022-12-04T14:57:30.987Z,9.65
2022-12-04T15:00:01.326Z,11.07
2022-12-04T15:02:37.194Z,9.73
2022-12-04T15:05:12.511Z,7.25
2022-12-04T15:07:49.798Z,8.98
2022-12-04T15:10:42.199Z,12.18
2022-12-04T15:13:14.904Z,10.20
2022-12-04T15:15:48.257Z,8.82
2022-12-04T15:18:20.266Z,7.80
2022-12-04T15:20:58.771Z,7.40
2022-12-04T15:23:31.591Z,10.07
2022-12-04T15:26:04.055Z,11.50
2022-12-04T15:28:37.662Z,11.00
2022-12-04T15:31:14.183Z,8.10
2022-12-04T15:33:49.480Z,10.80
2022-12-04T15:36:25.022Z,10.27
2022-12-04T15:38:55.352Z,10.25
2022-12-04T15:41:33.447Z,9.20
2022-12-04T15:44:05.417Z,11.50
2022-12-04T15:46:38.767Z,13.48
2022-12-04T15:49:19.903Z,10.40
2022-12-04T15:51:50.290Z,9.63
2022-12-04T15:54:24.607Z,10.27
2022-12-04T15:57:06.085Z,11.43
2022-12-04T15:59:37.783Z,9.90
2022-12-04T16:02:10.506Z,10.50
2022-12-04T16:04:45.601Z,10.85
2022-12-04T16:07:22.238Z,9.80
2022-12-04T16:10:03.233Z,9.50
2022-12-04T16:12:35.484Z,10.55
2022-12-04T16:15:05.301Z,11.18
2022-12-04T16:17:36.753Z,12.70
2022-12-04T16:20:09.057Z,13.15
2022-12-04T16:22:40.433Z,11.00
2022-12-04T16:25:12.055Z,15.13
2022-12-04T16:27:41.228Z,11.13
2022-12-04T16:30:11.996Z,11.38
2022-12-04T16:32:41.016Z,11.23
2022-12-04T16:35:17.974Z,8.75
2022-12-04T16:37:48.069Z,10.10
2022-12-04T16:40:19.627Z,11.30
2022-12-04T16:42:48.226Z,11.82
2022-12-04T16:45:25.092Z,11.30
2022-12-04T16:47:54.428Z,10.20
2022-12-04T16:50:27.782Z,9.93
2022-12-04T16:52:57.915Z,12.85
2022-12-04T16:55:33.465Z,14.38
2022-12-04T16:58:03.072Z,9.43
2022-12-04T17:00:32.688Z,11.60
2022-12-04T17:03:05.075Z,11.30
2022-12-04T17:05:36.556Z,14.05
2022-12-04T17:08:06.274Z,10.45
2022-12-04T17:10:35.593Z,10.35
2022-12-04T17:13:06.410Z,11.60
2022-12-04T17:15:37.178Z,12.50
2022-12-04T17:18:11.941Z,14.95
2022-12-04T17:20:46.395Z,11.43
2022-12-04T17:23:15.624Z,11.10
2022-12-04T17:25:44.289Z,13.52
2022-12-04T17:28:13.052Z,12.20
2022-12-04T17:30:45.662Z,11.57
2022-12-04T17:33:17.128Z,14.88
2022-12-04T17:35:48.369Z,9.90
2022-12-04T17:38:17.221Z,12.82
2022-12-04T17:40:46.342Z,12.82
2022-12-04T17:43:20.437Z,10.68
2022-12-04T17:45:51.118Z,11.30
2022-12-04T17:48:20.486Z,10.95
2022-12-04T17:50:51.672Z,16.33
2022-12-04T17:53:20.973Z,11.32
2022-12-04T17:55:51.040Z,11.40
2022-12-04T17:58:19.555Z,14.50
2022-12-04T18:00:48.551Z,13.55
2022-12-04T18:03:17.532Z,10.77
2022-12-04T18:05:46.845Z,9.93
2022-12-04T18:08:18.609Z,13.30
2022-12-04T18:10:47.923Z,12.65
2022-12-04T18:13:18.042Z,11.05
2022-12-04T18:15:47.039Z,12.95
2022-12-04T18:18:16.435Z,13.15
2022-12-04T18:20:45.021Z,11.07
2022-12-04T18:23:13.930Z,13.02
2022-12-04T18:25:45.008Z,13.05
2022-12-04T18:28:13.665Z,12.10
2022-12-04T18:30:45.016Z,14.05
2022-12-04T18:33:18.858Z,11.93
2022-12-04T18:35:55.993Z,14.23
2022-12-04T18:38:25.258Z,13.75
2022-12-04T18:40:56.570Z,18.52
2022-12-04T18:43:25.915Z,19.13
2022-12-04T18:46:06.841Z,13.07
2022-12-04T18:48:38.125Z,17.10
2022-12-04T18:51:17.017Z,18.70
2022-12-04T18:53:45.845Z,17.02
2022-12-04T18:56:16.532Z,14.60
2022-12-04T18:58:47.016Z,22.20
2022-12-04T19:01:18.649Z,18.25
2022-12-04T19:03:50.472Z,15.35
2022-12-04T19:06:19.222Z,18.30
2022-12-04T19:08:48.060Z,14.27
2022-12-04T19:11:18.395Z,16.92
2022-12-04T19:13:47.448Z,16.48
2022-12-04T19:16:18.237Z,14.98
2022-12-04T19:18:48.033Z,17.90
2022-12-04T19:21:18.634Z,16.60
2022-12-04T19:23:53.721Z,18.88
2022-12-04T19:26:25.283Z,16.90
2022-12-04T19:28:55.294Z,15.88
2022-12-04T19:31:27.057Z,20.30
2022-12-04T19:33:58.108Z,18.05
2022-12-04T19:36:29.673Z,13.57
2022-12-04T19:38:59.679Z,16.92
2022-12-04T19:41:31.965Z,21.33
2022-12-04T19:44:14.617Z,19.20
2022-12-04T19:46:51.233Z,16.95
2022-12-04T19:49:20.042Z,18.08
2022-12-04T19:51:50.242Z,13.13
2022-12-04T19:54:20.070Z,16.10
2022-12-04T19:56:52.760Z,16.45
2022-12-04T19:59:22.919Z,17.63
2022-12-04T20:01:52.240Z,13.18
2022-12-04T20:04:22.534Z,15.63
2022-12-04T20:06:53.619Z,19.75
2022-12-04T20:09:25.511Z,17.50
2022-12-04T20:11:55.942Z,16.77
2022-12-04T20:14:25.017Z,13.60
2022-12-04T20:16:54.661Z,15.23
2022-12-04T20:19:23.243Z,23.52
2022-12-04T20:21:57.669Z,14.80
2022-12-04T20:24:28.785Z,18.35
2022-12-04T20:26:58.938Z,13.20
2022-12-04T20:29:27.772Z,15.63
2022-12-04T20:31:56.740Z,13.10
2022-12-04T20:34:26.139Z,13.98
2022-12-04T20:36:54.926Z,17.95
2022-12-04T20:39:26.766Z,18.17
2022-12-04T20:42:01.726Z,17.45
2022-12-04T20:44:30.839Z,16.70
2022-12-04T20:47:00.839Z,18.85
2022-12-04T20:49:29.943Z,17.58
2022-12-04T20:51:58.766Z,14.75
2022-12-04T20:54:28.075Z,16.92
2022-12-04T20:57:00.830Z,14.65
2022-12-04T20:59:30.471Z,15.63
2022-12-04T21:02:00.422Z,17.90
2022-12-04T21:04:29.564Z,15.73
2022-12-04T21:06:59.677Z,14.30
2022-12-04T21:09:29.188Z,20.17
2022-12-04T21:12:02.568Z,15.70
2022-12-04T21:15:04.657Z,19.05
2022-12-04T21:17:33.644Z,19.17
2022-12-04T21:20:07.395Z,14.32
2022-12-04T21:22:37.068Z,16.27
2022-12-04T21:25:06.370Z,21.00
2022-12-04T21:27:37.014Z,18.25
2022-12-04T21:30:07.016Z,16.60
2022-12-04T21:32:35.952Z,19.27
2022-12-04T21:35:09.796Z,18.65
2022-12-04T21:37:39.143Z,18.38
2022-12-04T21:40:09.231Z,23.58
2022-12-04T21:42:41.119Z,16.88
2022-12-04T21:45:10.121Z,17.77
2022-12-04T21:47:40.459Z,17.35
2022-12-04T21:50:11.290Z,19.83
2022-12-04T21:52:40.284Z,20.75
2022-12-04T21:55:09.799Z,21.77
2022-12-04T21:57:41.145Z,18.17
2022-12-04T22:00:11.241Z,17.38
2022-12-04T22:02:40.578Z,15.95
2022-12-04T22:05:10.265Z,17.55
2022-12-04T22:07:39.353Z,15.55
2022-12-04T22:10:10.959Z,19.60
2022-12-04T22:12:50.763Z,16.27
2022-12-04T22:15:20.913Z,14.50
2022-12-04T22:17:49.463Z,17.00
2022-12-04T22:20:19.188Z,15.88
2022-12-04T22:22:48.479Z,15.18
2022-12-04T22:25:17.695Z,20.65
2022-12-04T22:27:48.375Z,18.48
2022-12-04T22:30:18.023Z,17.92
2022-12-04T22:32:47.556Z,17.63
2022-12-04T22:35:17.914Z,20.75
2022-12-04T22:37:48.330Z,22.65
2022-12-04T22:40:17.722Z,17.50
2022-12-04T22:42:48.680Z,15.48
2022-12-04T22:45:17.878Z,17.50
2022-12-04T22:47:46.653Z,18.33
2022-12-04T22:50:15.576Z,18.65
2022-12-04T22:52:44.194Z,18.27
2022-12-04T22:55:13.446Z,14.55
2022-12-04T22:57:42.548Z,16.75
2022-12-04T23:00:14.201Z,20.58
2022-12-04T23:02:43.226Z,18.58
2022-12-04T23:05:11.843Z,15.23
2022-12-04T23:07:41.347Z,15.65
2022-12-04T23:10:11.015Z,15.15
2022-12-04T23:12:40.109Z,15.98
2022-12-04T23:15:10.770Z,15.10
2022-12-04T23:17:41.776Z,17.33
2022-12-04T23:20:13.994Z,20.77
2022-12-04T23:22:42.654Z,20.58
2022-12-04T23:25:12.081Z,16.08
2022-12-04T23:27:40.839Z,17.15
2022-12-04T23:30:11.113Z,15.55
2022-12-04T23:32:41.505Z,15.60
2022-12-04T23:35:11.019Z,17.20
2022-12-04T23:37:40.000Z,16.58
2022-12-04T23:40:10.673Z,17.00
2022-12-04T23:42:41.885Z,14.65
2022-12-04T23:45:11.946Z,18.10
2022-12-04T23:47:43.947Z,16.25
2022-12-04T23:50:12.885Z,15.70
2022-12-04T23:52:42.086Z,19.75
2022-12-04T23:55:11.797Z,18.77
2022-12-04T23:57:44.373Z,19.17
